EFTU

Turku Airport

Turku, Finland
METAR EFTU 191950Z AUTO 23007KT CAVOK 16/05 Q1002
Observed Flight Rules
Jun-19 @ 19:50 UTC (22 minutes ago) Visual Flight Rules
Wind Visibility Clouds
230° at 7 knots 10,000+ meters
  • Clear skies
Temperatures Readings
Current 16°C / 61°F
Dewpoint 5°C / 41°F
Humidity 48%
Altimeter 29.59" Hg
Pressure 1002 hPa
Elevation 59
METAR EFTU 191950Z AUTO 23007KT CAVOK 16/05 Q1002
Observed Flight Rules
Jun-19 @ 19:50 UTC
(22 minutes ago)
VFR
Wind Visibility
230° at 7 knots 10,000+ meters
Clouds
  • Clear skies
Temperature Dewpoint
16°C / 61°F 5°C / 41°F
Humidity Altimeter Pressure
48% 29.59" Hg 1002 hPa